Rechercher aéroport 
image banner adimage banner adimage banner ad
image banner ad

02PA - Lag Iii

Situé à Monroeville, United States

ICAO - 02PA, IATA -

Données fournies par Airmate  

Information générale

Coordonnées: N40°27'48" W79°46'5"
Élévation : 1070 feet MSL.
Variation magnétique : -09° East
Voir autres Aéroports à Pennsylvania

Données opérationnelles

Special qualification required
Heure actuelle UTC:
Heure actuelle locale:
Météo à : KAGC - Allegheny County ( 18 km )
METAR: KAGC 150453Z 34006KT 10SM SCT095 16/13 A2988 RMK AO2 SLP114 T01560133 402780156
TAF: KAGC 142320Z 1500/1524 01006KT P6SM SCT060 FM150900 02005KT 3SM BR SKC TEMPO 1510/1512 1SM BR SCT002 FM151300 33010G18KT P6SM SCT040
Voir NOTAMs / SUP AIP / TFR affectant cet aéroport [VIEW]
Fréquences de communication: [VIEW]

Pistes:

Coordonnées de l'aéroport

Adresse: Monroeville United States

Vue satellite de 02PA